Time;durP1;ratioP1;P1;durP2;ratioP2;P2;SDS_P1;SDS_P2;PMS_P1;PMS_P2;Temp;Humidity;BMP_temperature;BMP_pressure;BME280_temperature;BME280_humidity;BME280_pressure;Samples;Min_cycle;Max_cycle;Signal;HPM_P1;HPM_P2
2023/01/18 00:00:38;;;;;;;5.43;4.75;;;0.60;1.00;;;;;;5053207;28;20175;-70
2023/01/18 00:03:04;;;;;;;7.07;4.13;;;0.60;1.00;;;;;;5051362;28;20555;-72
2023/01/18 00:05:30;;;;;;;7.97;5.10;;;0.70;1.00;;;;;;5044831;28;20202;-72
2023/01/18 00:07:55;;;;;;;6.63;5.10;;;0.70;1.00;;;;;;5033175;28;20172;-72
2023/01/18 00:10:21;;;;;;;5.07;4.57;;;0.60;1.00;;;;;;5032046;28;20406;-73
2023/01/18 00:12:48;;;;;;;9.43;4.93;;;0.60;1.00;;;;;;5033188;28;20207;-70
2023/01/18 00:15:14;;;;;;;7.55;5.43;;;0.50;1.00;;;;;;5032210;28;20206;-69
2023/01/18 00:17:50;;;;;;;6.37;4.77;;;0.60;1.00;;;;;;5033204;28;20179;-70
2023/01/18 00:20:17;;;;;;;5.10;3.67;;;0.50;1.00;;;;;;5033225;28;20851;-72
2023/01/18 00:22:43;;;;;;;8.23;5.70;;;0.50;1.00;;;;;;5032432;28;20180;-69
2023/01/18 00:25:09;;;;;;;4.47;3.90;;;0.50;1.00;;;;;;5032060;28;20198;-70
2023/01/18 00:27:44;;;;;;;4.95;4.22;;;0.50;1.00;;;;;;5033194;28;20175;-69
2023/01/18 00:30:11;;;;;;;4.22;3.83;;;0.50;1.00;;;;;;5032997;28;20179;-70
2023/01/18 00:32:37;;;;;;;6.00;4.80;;;0.50;1.00;;;;;;5032932;28;20639;-73
2023/01/18 00:35:06;;;;;;;4.53;4.23;;;0.50;1.00;;;;;;5032052;28;20199;-72
2023/01/18 00:37:32;;;;;;;5.65;4.75;;;0.50;1.00;;;;;;5032944;28;20183;-73
2023/01/18 00:39:58;;;;;;;5.60;5.07;;;0.50;1.00;;;;;;5032224;28;20238;-73
2023/01/18 00:45:09;;;;;;;6.88;5.00;;;0.60;1.00;;;;;;5036082;28;20206;-73
2023/01/18 00:47:34;;;;;;;6.32;4.85;;;0.70;1.00;;;;;;5037073;28;20621;-73
2023/01/18 00:50:00;;;;;;;4.60;4.20;;;0.60;1.00;;;;;;5036872;28;20176;-72
2023/01/18 00:52:26;;;;;;;11.90;4.80;;;0.60;1.00;;;;;;5036792;28;20179;-73
2023/01/18 00:54:52;;;;;;;6.93;5.00;;;0.60;1.00;;;;;;5035784;28;20183;-70
2023/01/18 00:57:18;;;;;;;4.93;4.43;;;0.60;1.00;;;;;;5036206;28;20168;-73
2023/01/18 00:59:45;;;;;;;5.20;4.80;;;0.60;1.00;;;;;;5036661;28;20182;-69
2023/01/18 01:02:11;;;;;;;5.00;4.50;;;0.70;1.00;;;;;;5036517;28;20410;-70
2023/01/18 01:07:21;;;;;;;6.70;4.93;;;0.70;1.00;;;;;;5056772;28;20220;-72
2023/01/18 01:09:47;;;;;;;6.50;5.80;;;0.70;1.00;;;;;;5055176;28;20179;-69
2023/01/18 01:26:07;;;;;;;5.72;5.18;;;0.80;1.00;;;;;;5055311;28;20221;-73
2023/01/18 01:28:44;;;;;;;9.02;5.65;;;0.90;1.00;;;;;;5055952;28;20637;-69
2023/01/18 01:31:13;;;;;;;5.47;4.68;;;0.90;1.00;;;;;;5055723;28;20190;-69
2023/01/18 01:33:39;;;;;;;7.00;5.70;;;0.90;1.00;;;;;;5054639;28;20178;-72
2023/01/18 01:36:11;;;;;;;5.72;5.22;;;0.90;1.00;;;;;;5054448;28;20206;-73
2023/01/18 01:38:37;;;;;;;5.38;4.88;;;0.90;1.00;;;;;;5054590;28;20542;-71
2023/01/18 01:41:24;;;;;;;6.72;5.47;;;1.00;1.00;;;;;;5054690;28;20280;-72
2023/01/18 01:43:58;;;;;;;9.43;6.03;;;1.00;1.00;;;;;;5053377;28;20570;-72
2023/01/18 01:46:51;;;;;;;9.35;5.80;;;1.00;1.00;;;;;;5052322;28;20228;-71
2023/01/18 01:49:26;;;;;;;5.57;5.07;;;1.00;1.00;;;;;;5053840;28;20167;-70
2023/01/18 01:52:04;;;;;;;8.10;5.50;;;1.00;1.00;;;;;;5054427;28;20166;-72
2023/01/18 01:54:42;;;;;;;7.45;6.80;;;1.00;1.00;;;;;;5053035;28;20209;-70
2023/01/18 01:57:14;;;;;;;4.82;4.18;;;1.10;1.00;;;;;;5053362;28;20551;-73
2023/01/18 02:00:05;;;;;;;7.20;5.25;;;1.10;1.00;;;;;;5054529;28;20166;-70
2023/01/18 02:02:32;;;;;;;9.25;6.47;;;1.00;1.00;;;;;;5054266;28;20761;-73
2023/01/18 02:04:59;;;;;;;11.13;7.03;;;1.10;1.00;;;;;;5049000;28;20577;-69
2023/01/18 02:07:25;;;;;;;6.97;6.15;;;1.10;1.00;;;;;;5033901;28;20156;-73
2023/01/18 02:09:52;;;;;;;8.40;6.03;;;1.10;1.00;;;;;;5034334;28;20172;-70
2023/01/18 02:12:18;;;;;;;8.52;7.22;;;1.10;1.00;;;;;;5034401;28;20171;-72
2023/01/18 02:14:44;;;;;;;7.05;6.45;;;1.20;1.00;;;;;;5033139;28;20198;-73
2023/01/18 02:17:30;;;;;;;8.03;5.93;;;1.20;1.00;;;;;;5034278;28;20621;-72
2023/01/18 02:20:33;;;;;;;8.07;6.00;;;1.10;1.00;;;;;;5034148;28;20189;-73
2023/01/18 02:23:17;;;;;;;8.18;5.35;;;1.10;1.00;;;;;;5034063;28;20644;-72
2023/01/18 02:26:01;;;;;;;8.00;6.50;;;1.10;1.00;;;;;;5032418;28;20215;-69
2023/01/18 02:28:36;;;;;;;7.82;7.20;;;1.10;1.00;;;;;;5033979;28;20160;-70
2023/01/18 02:31:25;;;;;;;5.85;5.28;;;1.20;1.00;;;;;;5034033;28;20206;-71
2023/01/18 02:34:16;;;;;;;14.77;7.40;;;1.20;1.00;;;;;;5033976;28;20171;-70
2023/01/18 02:37:20;;;;;;;6.20;5.63;;;1.20;1.00;;;;;;4992152;28;1167185;-70
2023/01/18 02:40:13;;;;;;;6.85;5.50;;;1.20;1.00;;;;;;5034796;28;20167;-69
2023/01/18 02:48:23;;;;;;;6.35;5.80;;;1.00;1.00;;;;;;5035046;28;20203;-71
2023/01/18 02:50:50;;;;;;;9.27;6.65;;;1.00;99.90;;;;;;5034634;28;20168;-70
2023/01/18 02:53:16;;;;;;;9.40;6.38;;;1.00;1.00;;;;;;5034535;28;20179;-72
2023/01/18 02:55:52;;;;;;;8.82;7.53;;;1.00;1.00;;;;;;5032615;28;20346;-73
2023/01/18 02:58:29;;;;;;;9.57;6.72;;;1.00;99.90;;;;;;5034581;28;20167;-72
2023/01/18 03:01:06;;;;;;;11.75;7.82;;;1.00;99.90;;;;;;5033923;28;20167;-70
2023/01/18 03:03:34;;;;;;;12.23;8.07;;;0.90;99.90;;;;;;5033203;28;20198;-70
2023/01/18 03:06:02;;;;;;;6.85;6.25;;;0.90;1.00;;;;;;5043807;28;20199;-73
2023/01/18 03:08:39;;;;;;;7.47;6.75;;;0.90;1.00;;;;;;5054242;28;20553;-70
2023/01/18 03:11:17;;;;;;;7.95;7.15;;;0.90;1.00;;;;;;5052813;28;20182;-70
2023/01/18 03:13:46;;;;;;;6.75;5.68;;;0.90;1.00;;;;;;5054109;28;20178;-70
2023/01/18 03:16:24;;;;;;;7.78;6.70;;;0.90;1.00;;;;;;5053163;28;20187;-72
2023/01/18 03:19:01;;;;;;;8.80;7.68;;;1.00;1.00;;;;;;5053442;28;20250;-70
2023/01/18 03:21:54;;;;;;;8.45;7.30;;;0.90;1.00;;;;;;5053896;28;20163;-72
2023/01/18 03:24:21;;;;;;;8.68;6.60;;;1.00;1.00;;;;;;5050883;28;20205;-72
2023/01/18 03:26:52;;;;;;;8.23;6.80;;;1.00;1.00;;;;;;5053695;28;20194;-70
2023/01/18 03:35:12;;;;;;;7.97;6.38;;;1.00;1.00;;;;;;5052633;28;20248;-70
2023/01/18 03:37:42;;;;;;;8.75;6.95;;;1.10;1.00;;;;;;5053601;28;20181;-70
2023/01/18 03:40:25;;;;;;;7.93;7.25;;;1.10;1.00;;;;;;5052688;28;20190;-72
2023/01/18 03:43:15;;;;;;;11.38;6.85;;;1.20;1.00;;;;;;5052447;28;20174;-70
2023/01/18 03:45:49;;;;;;;8.63;7.10;;;1.20;1.00;;;;;;5052492;28;20260;-73
2023/01/18 03:48:15;;;;;;;9.15;7.25;;;1.20;1.00;;;;;;5053589;28;20170;-73
2023/01/18 03:51:02;;;;;;;10.07;7.22;;;1.20;1.00;;;;;;5053422;28;20170;-72
2023/01/18 03:53:43;;;;;;;9.18;7.72;;;1.20;1.00;;;;;;5052722;28;20682;-72
2023/01/18 03:56:41;;;;;;;7.85;7.10;;;1.20;1.00;;;;;;5052482;28;20194;-70
2023/01/18 03:59:07;;;;;;;8.63;7.60;;;1.30;1.00;;;;;;5052918;28;20188;-70
2023/01/18 04:01:33;;;;;;;12.47;7.77;;;1.30;1.00;;;;;;5052224;28;20217;-72
2023/01/18 04:03:59;;;;;;;8.03;7.30;;;1.30;1.00;;;;;;5053151;28;20441;-70
2023/01/18 04:06:25;;;;;;;7.63;6.70;;;1.30;1.00;;;;;;5036237;28;20854;-71
2023/01/18 04:08:52;;;;;;;10.82;7.05;;;1.30;1.00;;;;;;5033378;28;20628;-70
2023/01/18 04:11:18;;;;;;;8.82;8.02;;;1.30;1.00;;;;;;5033189;28;20163;-73
2023/01/18 04:13:43;;;;;;;8.60;7.20;;;1.40;1.00;;;;;;5031579;28;20175;-72
2023/01/18 04:16:09;;;;;;;7.20;6.57;;;1.40;1.00;;;;;;5032206;28;20203;-70
2023/01/18 04:18:35;;;;;;;8.33;7.50;;;1.40;1.00;;;;;;5031746;28;20180;-73
2023/01/18 04:21:01;;;;;;;8.63;6.70;;;1.40;1.00;;;;;;5031897;28;20176;-72
2023/01/18 04:23:26;;;;;;;9.27;7.50;;;1.40;1.00;;;;;;5033103;28;20433;-70
2023/01/18 04:25:52;;;;;;;9.13;7.27;;;1.40;1.00;;;;;;5030783;28;20203;-72
2023/01/18 04:28:24;;;;;;;9.80;6.87;;;1.40;1.00;;;;;;5033192;28;20394;-70
2023/01/18 04:30:51;;;;;;;8.57;6.63;;;1.30;1.00;;;;;;5033067;28;20160;-70
2023/01/18 04:33:19;;;;;;;6.57;6.07;;;1.30;1.00;;;;;;5032356;28;20172;-73
2023/01/18 04:35:48;;;;;;;11.57;8.00;;;1.30;1.00;;;;;;5031933;28;20199;-73
2023/01/18 04:38:15;;;;;;;14.50;8.60;;;1.30;1.00;;;;;;5031709;28;20636;-73
2023/01/18 04:40:41;;;;;;;8.80;7.88;;;1.30;1.00;;;;;;5032812;28;20414;-70
2023/01/18 04:43:07;;;;;;;9.90;7.20;;;1.40;1.00;;;;;;5032858;28;20174;-73
2023/01/18 04:45:33;;;;;;;11.03;7.87;;;1.40;1.00;;;;;;5031932;28;20524;-71
2023/01/18 04:47:59;;;;;;;9.07;6.87;;;1.40;1.00;;;;;;5032768;28;20210;-70
2023/01/18 04:50:24;;;;;;;12.13;8.17;;;1.40;1.00;;;;;;5030909;28;20625;-71
2023/01/18 04:52:50;;;;;;;10.00;8.20;;;1.30;1.00;;;;;;5032802;28;20501;-72
2023/01/18 04:55:16;;;;;;;9.13;7.43;;;1.30;1.00;;;;;;5030501;28;20198;-70
2023/01/18 04:57:42;;;;;;;9.80;6.80;;;1.40;1.00;;;;;;5031498;28;20180;-72
2023/01/18 05:00:10;;;;;;;8.77;7.95;;;1.30;1.00;;;;;;5032573;28;20402;-73
2023/01/18 05:02:36;;;;;;;9.85;7.47;;;1.30;1.00;;;;;;5032722;28;20171;-70
2023/01/18 05:05:03;;;;;;;11.27;7.10;;;1.30;1.00;;;;;;5035021;28;20191;-72
2023/01/18 05:07:32;;;;;;;8.90;7.85;;;1.30;1.00;;;;;;5052643;28;20163;-70
2023/01/18 05:10:02;;;;;;;16.83;7.60;;;1.30;1.00;;;;;;5052041;28;20171;-73
2023/01/18 05:12:28;;;;;;;8.75;7.80;;;1.30;1.00;;;;;;5052250;28;20401;-72
2023/01/18 05:14:54;;;;;;;10.10;7.90;;;1.40;1.00;;;;;;5050534;28;20205;-70
2023/01/18 05:17:20;;;;;;;10.13;8.47;;;1.30;1.00;;;;;;5052450;28;20254;-70
2023/01/18 05:19:47;;;;;;;14.60;8.20;;;1.30;1.00;;;;;;5052450;28;20879;-70
2023/01/18 05:22:13;;;;;;;12.50;8.90;;;1.30;1.00;;;;;;5052353;28;20405;-70
2023/01/18 05:24:38;;;;;;;11.90;9.23;;;1.30;1.00;;;;;;5051438;28;21019;-73
2023/01/18 05:27:04;;;;;;;14.03;8.90;;;1.30;1.00;;;;;;5051047;28;20491;-72
2023/01/18 05:29:30;;;;;;;14.05;10.00;;;1.30;1.00;;;;;;5053754;28;20170;-71
2023/01/18 05:31:56;;;;;;;14.33;8.60;;;1.30;1.00;;;;;;5055691;28;20175;-73
2023/01/18 05:34:22;;;;;;;13.00;9.37;;;1.30;1.00;;;;;;5054971;28;20214;-72
2023/01/18 05:36:48;;;;;;;14.23;10.57;;;1.10;1.00;;;;;;5055773;28;20547;-71
2023/01/18 05:39:13;;;;;;;18.05;11.63;;;1.10;1.00;;;;;;5055939;28;20195;-73
2023/01/18 05:41:39;;;;;;;14.17;10.77;;;1.00;1.00;;;;;;5055938;28;20163;-70
2023/01/18 05:44:05;;;;;;;17.60;11.50;;;1.00;1.00;;;;;;5055505;28;20402;-72
2023/01/18 05:46:31;;;;;;;17.43;11.60;;;1.00;1.00;;;;;;5054754;28;20702;-70
2023/01/18 05:48:58;;;;;;;19.33;10.17;;;1.10;1.00;;;;;;5053888;28;20171;-73
2023/01/18 05:51:24;;;;;;;16.95;11.68;;;1.10;1.00;;;;;;5055629;28;20159;-73
2023/01/18 05:53:49;;;;;;;15.02;10.75;;;1.10;1.00;;;;;;5055600;28;20524;-72
2023/01/18 05:56:15;;;;;;;15.80;10.40;;;1.00;1.00;;;;;;5054698;28;20191;-73
2023/01/18 05:58:41;;;;;;;16.42;11.48;;;1.00;99.90;;;;;;5055507;28;20177;-69
2023/01/18 06:01:07;;;;;;;20.43;10.50;;;1.00;99.90;;;;;;5055499;28;20254;-69
2023/01/18 06:03:33;;;;;;;16.90;12.17;;;0.90;99.90;;;;;;5055613;28;20167;-68
2023/01/18 06:05:59;;;;;;;17.73;11.38;;;0.90;99.90;;;;;;5042446;28;20461;-69
2023/01/18 06:08:25;;;;;;;20.37;11.07;;;0.90;99.90;;;;;;5034010;28;20268;-71
2023/01/18 06:10:53;;;;;;;15.77;11.13;;;0.90;99.90;;;;;;5034105;28;20406;-69
2023/01/18 06:13:19;;;;;;;12.90;10.00;;;0.90;99.90;;;;;;5035335;28;20880;-72
2023/01/18 06:15:45;;;;;;;12.70;10.35;;;0.90;99.90;;;;;;5034202;28;20187;-70
2023/01/18 06:18:11;;;;;;;10.30;9.02;;;0.80;99.90;;;;;;5035369;28;20204;-70
2023/01/18 06:20:37;;;;;;;18.80;10.17;;;0.80;99.90;;;;;;5035076;28;20176;-70
2023/01/18 06:23:03;;;;;;;17.40;10.37;;;0.80;99.90;;;;;;5035154;28;20242;-71
2023/01/18 06:25:28;;;;;;;16.50;12.00;;;0.80;99.90;;;;;;5032414;28;20243;-72
2023/01/18 06:27:54;;;;;;;14.03;10.30;;;0.80;99.90;;;;;;5034911;28;20159;-69
2023/01/18 06:30:20;;;;;;;18.13;9.50;;;0.90;99.90;;;;;;5035190;28;20636;-72
2023/01/18 06:32:48;;;;;;;13.83;10.17;;;0.90;99.90;;;;;;5034804;28;20170;-70
2023/01/18 06:35:14;;;;;;;11.88;8.35;;;0.90;99.90;;;;;;5033796;28;20422;-70
2023/01/18 06:37:40;;;;;;;14.83;9.33;;;0.90;99.90;;;;;;5035002;28;20175;-70
2023/01/18 06:40:06;;;;;;;13.97;9.13;;;0.90;99.90;;;;;;5034153;28;20167;-69
2023/01/18 06:42:32;;;;;;;15.70;10.77;;;1.00;99.90;;;;;;5033099;28;20175;-71
2023/01/18 06:44:58;;;;;;;13.90;9.43;;;1.00;99.90;;;;;;5033185;28;20229;-70
2023/01/18 06:47:24;;;;;;;13.45;9.20;;;1.00;99.90;;;;;;5038876;28;20164;-69
2023/01/18 06:49:49;;;;;;;10.40;9.27;;;1.00;99.90;;;;;;5038232;28;20205;-70
2023/01/18 06:52:15;;;;;;;13.40;8.93;;;1.00;99.90;;;;;;5054639;28;20167;-69
2023/01/18 06:54:41;;;;;;;12.13;9.13;;;1.00;99.90;;;;;;5053684;28;20696;-70
2023/01/18 06:57:07;;;;;;;21.02;9.23;;;1.00;99.90;;;;;;5054368;28;20167;-72
2023/01/18 06:59:33;;;;;;;11.43;9.20;;;1.10;99.90;;;;;;5054445;28;20178;-70
2023/01/18 07:01:58;;;;;;;10.40;8.33;;;1.00;99.90;;;;;;5054408;28;20270;-72
2023/01/18 07:04:24;;;;;;;21.20;10.00;;;1.10;99.90;;;;;;5053296;28;20187;-72
2023/01/18 07:06:50;;;;;;;11.40;8.73;;;1.10;99.90;;;;;;5052510;28;20217;-71
2023/01/18 07:09:16;;;;;;;10.93;9.40;;;1.00;99.90;;;;;;5054037;28;20673;-73
2023/01/18 07:11:42;;;;;;;15.70;10.27;;;1.00;99.90;;;;;;5053256;28;20171;-72
2023/01/18 07:14:11;;;;;;;10.30;8.80;;;1.00;99.90;;;;;;5053846;28;20178;-71
2023/01/18 07:16:37;;;;;;;15.40;9.43;;;1.00;99.90;;;;;;5052349;28;20413;-73
2023/01/18 07:19:03;;;;;;;10.88;9.10;;;0.90;99.90;;;;;;5052906;28;20182;-72
2023/01/18 07:21:29;;;;;;;14.20;10.80;;;0.90;99.90;;;;;;5052687;28;20715;-72
2023/01/18 07:23:56;;;;;;;13.35;9.88;;;0.90;99.90;;;;;;5053757;28;20644;-69
2023/01/18 07:26:23;;;;;;;12.15;9.75;;;0.90;99.90;;;;;;5052768;28;20278;-70
2023/01/18 07:28:49;;;;;;;16.80;10.10;;;0.90;99.90;;;;;;5053827;28;20163;-70
2023/01/18 07:31:16;;;;;;;13.90;11.03;;;0.90;99.90;;;;;;5053528;28;20214;-70
2023/01/18 07:33:42;;;;;;;21.17;12.35;;;1.00;99.90;;;;;;5053789;28;20170;-72
2023/01/18 07:36:09;;;;;;;15.80;11.43;;;0.90;99.90;;;;;;5051954;28;20214;-70
2023/01/18 07:38:36;;;;;;;12.95;10.57;;;0.90;99.90;;;;;;5053559;28;20428;-73
2023/01/18 07:41:13;;;;;;;19.52;12.63;;;0.90;99.90;;;;;;5053660;28;20175;-70
2023/01/18 07:43:39;;;;;;;23.20;12.80;;;0.80;99.90;;;;;;5052984;28;20249;-70
2023/01/18 07:46:08;;;;;;;16.35;11.77;;;0.80;99.90;;;;;;5052737;28;20260;-69
2023/01/18 07:48:33;;;;;;;16.90;13.20;;;0.70;99.90;;;;;;5053533;28;20167;-70
2023/01/18 07:51:02;;;;;;;16.77;11.93;;;0.70;99.90;;;;;;5053549;28;20171;-70
2023/01/18 07:53:29;;;;;;;16.05;11.82;;;0.60;99.90;;;;;;5052971;28;20169;-70
2023/01/18 07:55:59;;;;;;;15.65;13.20;;;0.50;99.90;;;;;;5051271;28;20590;-70
2023/01/18 07:58:25;;;;;;;15.52;11.25;;;0.50;99.90;;;;;;5053238;28;20163;-72
2023/01/18 08:00:50;;;;;;;18.60;13.50;;;0.40;99.90;;;;;;5052901;28;20202;-70
2023/01/18 08:03:17;;;;;;;19.20;13.70;;;0.40;99.90;;;;;;5052255;28;20257;-72
2023/01/18 08:05:44;;;;;;;23.15;13.98;;;0.40;99.90;;;;;;5052456;28;20213;-70
2023/01/18 08:08:12;;;;;;;23.48;13.93;;;0.30;99.90;;;;;;5043439;28;20179;-72
2023/01/18 08:10:38;;;;;;;20.52;12.48;;;0.30;99.90;;;;;;5033123;28;20183;-70
2023/01/18 08:13:05;;;;;;;16.33;12.60;;;0.30;99.90;;;;;;5034200;28;20187;-73
2023/01/18 08:15:31;;;;;;;26.60;13.52;;;0.20;99.90;;;;;;5046629;28;20469;-70
2023/01/18 08:18:01;;;;;;;16.60;11.88;;;0.20;99.90;;;;;;5045830;28;20184;-72
2023/01/18 08:20:27;;;;;;;19.55;13.23;;;0.30;99.90;;;;;;5032397;28;20254;-70
2023/01/18 08:22:55;;;;;;;20.80;12.35;;;0.20;99.90;;;;;;5038707;28;20667;-70
2023/01/18 08:25:22;;;;;;;13.80;12.02;;;0.20;99.90;;;;;;5051809;28;20190;-69
2023/01/18 08:27:47;;;;;;;16.67;11.13;;;0.20;99.90;;;;;;5046934;28;20930;-72
2023/01/18 08:30:13;;;;;;;17.87;13.10;;;0.20;99.90;;;;;;5033078;28;20185;-70
2023/01/18 08:32:39;;;;;;;27.20;14.00;;;0.20;99.90;;;;;;5036044;28;20185;-70
2023/01/18 08:35:06;;;;;;;17.85;13.32;;;0.20;99.90;;;;;;5032015;28;20422;-71
2023/01/18 08:37:31;;;;;;;20.65;14.85;;;0.20;99.90;;;;;;5032934;28;20183;-70
2023/01/18 08:39:57;;;;;;;17.80;12.30;;;0.20;99.90;;;;;;5032384;28;20652;-70
2023/01/18 08:42:23;;;;;;;19.87;13.43;;;0.30;99.90;;;;;;5035340;28;20172;-70
2023/01/18 08:44:48;;;;;;;17.37;12.43;;;0.30;99.90;;;;;;5051902;28;20191;-74
2023/01/18 08:47:14;;;;;;;25.00;12.67;;;0.30;99.90;;;;;;5051636;28;20209;-70
2023/01/18 08:49:40;;;;;;;21.70;15.38;;;0.30;99.90;;;;;;5031620;28;20175;-71
2023/01/18 08:52:09;;;;;;;18.80;13.10;;;0.30;99.90;;;;;;5033274;28;20689;-73
2023/01/18 08:54:35;;;;;;;20.27;14.07;;;0.30;99.90;;;;;;5029401;28;20450;-73
2023/01/18 08:57:01;;;;;;;16.90;12.47;;;0.40;99.90;;;;;;5034077;28;20176;-70
2023/01/18 08:59:27;;;;;;;19.27;13.45;;;0.40;99.90;;;;;;5051382;28;20180;-70
2023/01/18 09:01:52;;;;;;;18.73;13.10;;;0.50;99.90;;;;;;5051035;28;20547;-70
2023/01/18 09:04:18;;;;;;;17.30;13.00;;;0.60;99.90;;;;;;5033588;28;20653;-72
2023/01/18 09:06:45;;;;;;;16.10;11.77;;;0.60;99.90;;;;;;5036435;28;20249;-73
2023/01/18 09:09:11;;;;;;;20.05;12.88;;;0.70;99.90;;;;;;5053050;28;20175;-70
2023/01/18 09:11:37;;;;;;;17.38;12.73;;;0.70;99.90;;;;;;5043160;28;20633;-70
2023/01/18 09:14:02;;;;;;;19.70;12.20;;;0.80;99.90;;;;;;5035556;28;20164;-73
2023/01/18 09:16:29;;;;;;;18.70;13.87;;;0.80;99.90;;;;;;5036672;28;20548;-72
2023/01/18 09:18:56;;;;;;;19.95;14.25;;;0.80;99.90;;;;;;5036587;28;20188;-70
2023/01/18 09:21:22;;;;;;;22.27;13.50;;;0.80;99.90;;;;;;5040497;28;20179;-70
2023/01/18 09:23:48;;;;;;;22.37;14.50;;;0.80;99.90;;;;;;5042571;28;20221;-70
2023/01/18 09:26:15;;;;;;;20.05;13.57;;;0.80;99.90;;;;;;5035097;28;20191;-70
2023/01/18 09:28:47;;;;;;;19.10;11.77;;;0.80;99.90;;;;;;5042874;28;20657;-73
2023/01/18 09:31:13;;;;;;;17.30;12.77;;;0.70;99.90;;;;;;5055676;28;20159;-73
2023/01/18 09:33:41;;;;;;;17.50;12.03;;;0.70;99.90;;;;;;5054318;28;20219;-70
2023/01/18 09:36:08;;;;;;;18.42;12.80;;;0.60;99.90;;;;;;5052147;28;20456;-73
2023/01/18 09:38:35;;;;;;;18.35;12.23;;;0.70;99.90;;;;;;5035909;28;20167;-73
2023/01/18 09:41:04;;;;;;;18.40;11.85;;;0.70;99.90;;;;;;5036928;28;20529;-70
2023/01/18 09:43:38;;;;;;;18.75;13.77;;;0.70;99.90;;;;;;5055996;28;20171;-74
2023/01/18 09:46:04;;;;;;;15.93;12.90;;;0.70;99.90;;;;;;5045763;28;20184;-70
2023/01/18 09:48:42;;;;;;;22.60;13.27;;;0.60;99.90;;;;;;5035614;28;20207;-73
2023/01/18 09:51:43;;;;;;;17.15;12.80;;;0.70;99.90;;;;;;5043801;28;20162;-73
2023/01/18 09:54:37;;;;;;;15.05;10.85;;;0.70;99.90;;;;;;5054651;28;20516;-73
2023/01/18 09:57:11;;;;;;;20.15;13.23;;;0.80;99.90;;;;;;5042318;28;20313;-73
2023/01/18 09:59:58;;;;;;;16.38;10.88;;;0.90;99.90;;;;;;5034682;28;20175;-73
2023/01/18 10:02:31;;;;;;;22.05;13.23;;;0.90;99.90;;;;;;5052984;28;20722;-72
2023/01/18 10:05:06;;;;;;;18.27;12.70;;;0.90;99.90;;;;;;5054566;28;20203;-73
2023/01/18 10:07:36;;;;;;;14.15;12.70;;;1.00;99.90;;;;;;5036990;28;20210;-70
2023/01/18 10:10:03;;;;;;;17.75;11.30;;;1.00;99.90;;;;;;5034306;28;20171;-70
2023/01/18 10:12:55;;;;;;;16.33;10.32;;;1.10;99.90;;;;;;5037710;28;20176;-73
2023/01/18 10:15:25;;;;;;;14.57;11.70;;;1.20;99.90;;;;;;5033859;28;20226;-74
2023/01/18 10:17:55;;;;;;;15.38;11.07;;;1.30;99.90;;;;;;5035287;28;20168;-73
2023/01/18 10:20:35;;;;;;;18.33;11.40;;;1.30;99.90;;;;;;5044072;28;20204;-71
2023/01/18 10:23:19;;;;;;;17.35;12.45;;;1.30;99.90;;;;;;5055135;28;20170;-72
2023/01/18 10:26:00;;;;;;;13.20;9.65;;;1.40;99.90;;;;;;5042123;28;20199;-72
2023/01/18 10:28:40;;;;;;;18.70;11.45;;;1.40;99.90;;;;;;5033266;28;20171;-73
2023/01/18 10:31:32;;;;;;;15.45;12.20;;;1.50;99.90;;;;;;5050185;28;20257;-70
2023/01/18 10:33:59;;;;;;;21.35;13.65;;;1.50;99.90;;;;;;5053540;28;20527;-73
2023/01/18 10:36:31;;;;;;;15.45;10.95;;;1.60;99.90;;;;;;5036521;28;20191;-71
2023/01/18 10:39:00;;;;;;;19.23;12.23;;;1.70;99.90;;;;;;5034853;28;20171;-74
2023/01/18 10:41:33;;;;;;;18.80;11.80;;;1.80;99.90;;;;;;5042965;28;20415;-73
2023/01/18 10:44:00;;;;;;;13.80;10.48;;;1.80;99.90;;;;;;5034757;28;20962;-73
2023/01/18 10:46:26;;;;;;;15.90;11.20;;;1.80;99.90;;;;;;5033521;28;20207;-71
2023/01/18 10:48:54;;;;;;;24.37;12.43;;;1.80;99.90;;;;;;5034336;28;20403;-74
2023/01/18 10:51:36;;;;;;;19.37;12.83;;;1.80;99.90;;;;;;5047571;28;20791;-73
2023/01/18 10:54:16;;;;;;;15.60;12.10;;;1.90;99.90;;;;;;5054276;28;20429;-74
2023/01/18 10:56:43;;;;;;;18.23;12.17;;;1.90;99.90;;;;;;5051548;28;20436;-74
2023/01/18 10:59:24;;;;;;;18.30;12.97;;;1.90;99.90;;;;;;5043685;28;20430;-74
2023/01/18 11:01:54;;;;;;;13.40;11.00;;;2.00;99.90;;;;;;5034475;28;20479;-74
2023/01/18 11:04:23;;;;;;;19.07;11.73;;;2.00;99.90;;;;;;5044072;28;20498;-74
2023/01/18 11:06:52;;;;;;;19.30;11.50;;;2.00;99.90;;;;;;5054136;28;20453;-73
2023/01/18 11:09:43;;;;;;;21.40;12.30;;;2.00;99.90;;;;;;5043430;28;20460;-74
2023/01/18 11:12:33;;;;;;;15.60;11.83;;;2.10;99.90;;;;;;5034228;28;20405;-73
2023/01/18 11:15:14;;;;;;;15.07;10.70;;;2.20;99.90;;;;;;5048392;28;20881;-73
2023/01/18 11:17:49;;;;;;;15.07;9.93;;;2.30;99.90;;;;;;5054127;28;20744;-74
2023/01/18 11:20:17;;;;;;;15.87;11.90;;;2.20;99.90;;;;;;5035625;28;20433;-73
2023/01/18 11:23:02;;;;;;;16.40;11.03;;;2.20;99.90;;;;;;5051624;28;20425;-73
2023/01/18 11:25:47;;;;;;;17.20;11.53;;;2.10;99.90;;;;;;5032843;28;20457;-73
2023/01/18 11:28:20;;;;;;;17.00;12.63;;;2.10;99.90;;;;;;5036116;28;20464;-73
2023/01/18 11:31:20;;;;;;;19.27;11.53;;;2.20;99.90;;;;;;5053720;28;20401;-74
2023/01/18 11:33:53;;;;;;;15.80;11.87;;;2.20;99.90;;;;;;5045672;28;20418;-74
2023/01/18 11:36:32;;;;;;;13.33;9.77;;;2.20;99.90;;;;;;5032931;28;20430;-72
2023/01/18 11:39:25;;;;;;;18.17;10.70;;;2.30;99.90;;;;;;5037182;28;20760;-72
2023/01/18 11:42:12;;;;;;;20.70;10.80;;;2.30;99.90;;;;;;5033170;28;20489;-73
2023/01/18 11:45:09;;;;;;;16.60;10.73;;;2.30;99.90;;;;;;5044665;28;20445;-71
2023/01/18 11:48:00;;;;;;;16.10;12.73;;;2.20;99.90;;;;;;5034168;28;20426;-72
2023/01/18 11:50:47;;;;;;;17.37;10.37;;;2.20;99.90;;;;;;5033578;28;20891;-72
2023/01/18 11:53:33;;;;;;;20.03;10.80;;;2.20;99.90;;;;;;5035684;28;20418;-72
2023/01/18 11:56:12;;;;;;;15.10;9.90;;;2.20;99.90;;;;;;5051103;28;20853;-71
2023/01/18 11:58:39;;;;;;;19.10;9.63;;;2.30;99.90;;;;;;5046698;28;20811;-72
2023/01/18 12:02:00;;;;;;;20.20;11.43;;;2.30;99.90;;;;;;5032911;28;20872;-72
2023/01/18 12:04:49;;;;;;;15.90;10.77;;;2.20;99.90;;;;;;5001552;28;20447;-71
2023/01/18 12:07:52;;;;;;;12.20;9.73;;;2.40;99.90;;;;;;5044374;28;20450;-72
2023/01/18 12:10:26;;;;;;;13.00;9.83;;;2.40;99.90;;;;;;5033373;28;20755;-72
2023/01/18 12:13:18;;;;;;;19.37;12.27;;;2.40;99.90;;;;;;5041549;28;20435;-72
2023/01/18 12:16:12;;;;;;;15.23;10.43;;;2.40;99.90;;;;;;5050873;28;20429;-73
2023/01/18 12:18:37;;;;;;;18.30;11.20;;;2.50;99.90;;;;;;5050655;28;21004;-72
2023/01/18 12:21:17;;;;;;;13.17;10.50;;;2.60;99.90;;;;;;5052950;28;20643;-72
2023/01/18 12:24:16;;;;;;;16.70;10.10;;;2.70;99.90;;;;;;5034573;28;20262;-72
2023/01/18 12:26:49;;;;;;;15.67;10.73;;;2.70;99.90;;;;;;5032707;28;20458;-73
2023/01/18 12:29:42;;;;;;;16.33;11.20;;;2.70;99.90;;;;;;5052862;28;20439;-72
2023/01/18 12:32:32;;;;;;;20.33;11.77;;;2.70;99.90;;;;;;5049215;28;20413;-71
2023/01/18 12:35:13;;;;;;;14.50;10.30;;;2.60;99.90;;;;;;5030819;28;20430;-71
2023/01/18 12:37:46;;;;;;;16.30;11.70;;;2.60;99.90;;;;;;5034893;28;20418;-71
2023/01/18 12:40:30;;;;;;;17.57;10.90;;;2.70;99.90;;;;;;5037050;28;20405;-71
2023/01/18 12:43:45;;;;;;;13.50;10.13;;;2.60;99.90;;;;;;5049541;28;20421;-72
2023/01/18 12:46:35;;;;;;;16.00;11.07;;;2.60;99.90;;;;;;5055788;28;20924;-71
2023/01/18 12:49:07;;;;;;;16.70;10.37;;;2.70;99.90;;;;;;5036943;28;20513;-71
2023/01/18 12:51:36;;;;;;;18.00;11.37;;;2.70;99.90;;;;;;5040322;28;20466;-73
2023/01/18 12:54:17;;;;;;;14.70;9.87;;;2.80;99.90;;;;;;5036380;28;20426;-73
2023/01/18 12:56:47;;;;;;;10.47;8.40;;;2.80;99.90;;;;;;5040869;28;20439;-72
2023/01/18 12:59:31;;;;;;;13.97;10.23;;;2.80;99.90;;;;;;5055361;28;20906;-72
2023/01/18 13:02:20;;;;;;;14.07;10.30;;;2.90;99.90;;;;;;5050364;28;20429;-72
2023/01/18 13:04:52;;;;;;;13.37;9.20;;;2.90;99.90;;;;;;5035577;28;20426;-72
2023/01/18 13:07:25;;;;;;;12.87;8.73;;;2.90;99.90;;;;;;5039630;28;20457;-72
2023/01/18 13:09:52;;;;;;;10.93;9.50;;;2.90;99.90;;;;;;5046275;28;20420;-72
2023/01/18 13:12:18;;;;;;;14.00;9.60;;;2.90;99.90;;;;;;5046807;28;20919;-73
2023/01/18 13:15:06;;;;;;;16.63;10.60;;;2.90;99.90;;;;;;5055308;28;20767;-73
2023/01/18 13:17:32;;;;;;;15.33;8.40;;;2.90;99.90;;;;;;5041348;28;20497;-73
2023/01/18 13:20:10;;;;;;;10.40;8.10;;;2.90;99.90;;;;;;5036333;28;20434;-73
2023/01/18 13:23:00;;;;;;;11.83;9.00;;;2.90;99.90;;;;;;5046036;28;20535;-73
2023/01/18 13:25:26;;;;;;;13.40;8.47;;;2.90;99.90;;;;;;5034272;28;20466;-73
2023/01/18 13:28:12;;;;;;;11.13;8.67;;;2.90;99.90;;;;;;5035735;28;20481;-74
2023/01/18 13:30:57;;;;;;;16.17;8.77;;;2.90;99.90;;;;;;5052453;28;20439;-71
2023/01/18 13:33:29;;;;;;;12.30;10.73;;;3.00;99.90;;;;;;5036091;28;20171;-71
2023/01/18 13:36:06;;;;;;;11.93;8.60;;;3.00;99.90;;;;;;5054478;28;20506;-72
2023/01/18 13:38:37;;;;;;;13.80;9.30;;;3.00;99.90;;;;;;5055994;28;20476;-72
2023/01/18 13:41:06;;;;;;;9.87;7.63;;;3.10;99.90;;;;;;5036059;28;20454;-71
2023/01/18 13:43:35;;;;;;;13.27;9.00;;;3.00;99.90;;;;;;5037178;28;20406;-72